Terminal Aerodrome Forecast
Issued by NWS Oklahoma City, OK

Home | Current Version | Previous Version | Text Only | Print | Product List | Glossary On
Versions: 1 2 3 4 5 6 7 8 9 10 11 12
000
FTUS44 KOUN 302338
TAFOUN
TAF
KOUN 302338Z 3100/3124 VRB05KT P6SM SCT060 BKN250
     FM310100 VRB05KT P6SM SCT100 BKN250
     FM311500 01005KT P6SM BKN040 PROB30 3115/3120 4SM -TSRA
      OVC050CB
     FM312000 01009KT P6SM BKN050
      TEMPO 3120/3124 3SM TSRA BKN040CB=

USA.gov is the U.S. government's official web portal to all federal, state and local government web resources and services.